Flight Track Log - Related Links

Times and Time Zones

All times are in EDT time to prevent confusion due to time zone crossing. See the EJA929 flight status page for this flight to view local times or setup timezone preferences in your user account.

Time Position Orientation Groundspeed Altitude Reporting Facility
EDT Latitude Longitude Course Direction KTS MPH feet Rate Location/Type
Thu 07:37:23 PM 37.3833 -121.9500 345° North 175 201 1,500  Level Northern Cal TRACON
Thu 07:38:23 PM 37.4333 -121.9667 345° North 212 244 4,300 1,667 Climbing Northern Cal TRACON
Thu 07:39:29 PM 37.4000 -121.9000 122° Southeast 230 265 5,000 818 Climbing Northern Cal TRACON
Thu 07:40:13 PM 37.3672 -121.8572 134° Southeast 233 268 5,800 2,264 Climbing Oakland Center
Thu 07:41:15 PM 37.3089 -121.8406 167° South 246 283 9,000 2,927 Climbing Oakland Center
Thu 07:42:16 PM 37.3292 -121.9094 290° West 250 288 11,800 1,610 Climbing Oakland Center
Thu 07:43:18 PM 37.4056 -121.9494 337° Northwest 298 343 12,300 1,220 Climbing Oakland Center
Thu 07:44:19 PM 37.5000 -121.9572 356° North 332 382 14,300 1,659 Climbing Oakland Center
Thu 07:45:21 PM 37.5953 -121.9672 355° North 343 395 15,700 1,659 Climbing Oakland Center
Thu 07:46:22 PM 37.7136 -121.9783 356° North 354 407 17,700 1,721 Climbing Oakland Center
Thu 07:47:23 PM 37.8161 -121.9875 356° North 368 423 19,200 1,756 Climbing Oakland Center
Thu 07:48:25 PM 37.9206 -121.9936 357° North 377 434 21,300 1,854 Climbing Oakland Center
Thu 07:49:26 PM 38.0214 -121.9797 North 377 434 23,000 1,561 Climbing Oakland Center
Thu 07:50:28 PM 38.0911 -121.8822 48° Northeast 377 434 24,500 1,171 Climbing Oakland Center
Thu 07:51:29 PM 38.1519 -121.7672 56° Northeast 392 451 25,400 1,220 Climbing Oakland Center
Thu 07:52:31 PM 38.2161 -121.6461 56° Northeast 411 473 27,000 1,659 Climbing Oakland Center
Thu 07:53:32 PM 38.2936 -121.5011 56° Northeast 413 475 28,800 1,672 Climbing Oakland Center
Thu 07:54:33 PM 38.3539 -121.3889 56° Northeast 412 474 30,400 1,317 Climbing Oakland Center
Thu 07:55:35 PM 38.4222 -121.2569 57° Northeast 422 486 31,500 1,122 Climbing Oakland Center
Thu 07:56:36 PM 38.4825 -121.1411 56° Northeast 435 501 32,700 1,317 Climbing Oakland Center
Thu 07:57:38 PM 38.5647 -120.9872 56° Northeast 445 512 34,200 1,561 Climbing Oakland Center
Thu 07:58:39 PM 38.6328 -120.8581 56° Northeast 441 507 35,900 1,525 Climbing Oakland Center
Thu 07:59:40 PM 38.7003 -120.7297 56° Northeast 439 505 37,300 1,122 Climbing Oakland Center
Thu 08:00:42 PM 38.7686 -120.5978 56° Northeast 443 510 38,200 732 Climbing Oakland Center
Thu 08:01:43 PM 38.8392 -120.4611 56° Northeast 457 526 38,800 585 Climbing Oakland Center
Thu 08:02:45 PM 38.9106 -120.3219 57° Northeast 467 537 39,400 634 Climbing Oakland Center
Thu 08:03:46 PM 38.9822 -120.1811 57° Northeast 469 540 40,100 738 Climbing Oakland Center
Thu 08:04:47 PM 39.0675 -120.0186 56° Northeast 473 544 40,900 439 Climbing Oakland Center
Thu 08:05:49 PM 39.1297 -119.8672 62° Northeast 479 551 41,000 49 Climbing Oakland Center
Thu 08:06:50 PM 39.1692 -119.6956 73° East 502 578 41,000  Level Oakland Center
Thu 08:07:51 PM 39.2100 -119.5256 73° East 499 574 41,000  Level Oakland Center
Thu 08:08:53 PM 39.2514 -119.3547 73° East 501 577 41,000  Level Oakland Center
Thu 08:09:54 PM 39.2922 -119.1833 73° East 501 577 41,000  Level Oakland Center
Thu 08:10:55 PM 39.3394 -118.9872 73° East 501 577 41,000 195 Level Oakland Center
Thu 08:11:57 PM 39.3803 -118.8153 73° East 500 575 41,400 439 Climbing Oakland Center
Thu 08:12:58 PM 39.4208 -118.6433 73° East 500 575 41,900 492 Climbing Oakland Center
Thu 08:13:59 PM 39.4603 -118.4750 73° East 490 564 42,400 537 Climbing Oakland Center
Thu 08:15:01 PM 39.4964 -118.3181 73° East 482 555 43,000 293 Climbing Oakland Center
Thu 08:16:02 PM 39.5344 -118.1517 73° East 482 555 43,000  Level Oakland Center
Thu 08:17:03 PM 39.5739 -117.9817 73° East 491 565 43,000  Level Oakland Center
Thu 08:18:04 PM 39.6200 -117.7767 74° East 494 568 43,000  Level Oakland Center
Thu 08:19:06 PM 39.6594 -117.6042 73° East 498 573 43,000  Level Oakland Center
Thu 08:20:07 PM 39.6978 -117.4311 74° East 498 573 43,000  Level Oakland Center
Thu 08:21:08 PM 39.7347 -117.2614 74° East 496 571 43,000  Level Oakland Center
Thu 08:22:10 PM 39.7711 -117.0944 74° East 502 578 43,000  Level Oakland Center
Thu 08:22:54 PM 39.8014 -116.9553 74° East 500 575 43,000  Level Salt Lake Center
Thu 08:23:56 PM 39.8364 -116.7889 75° East 501 577 43,000  Level Salt Lake Center
Thu 08:24:58 PM 39.8786 -116.5939 74° East 504 580 43,000  Level Salt Lake Center
Thu 08:26:00 PM 39.9139 -116.4269 75° East 504 580 43,000 -48 Level Salt Lake Center
Thu 08:27:02 PM 39.9561 -116.2308 74° East 506 582 42,900 -48 Descending Salt Lake Center
Thu 08:28:04 PM 39.9919 -116.0617 74° East 506 582 42,900  Level Salt Lake Center
Thu 08:29:06 PM 40.0342 -115.8628 74° East 509 586 42,900  Level Salt Lake Center
Thu 08:30:08 PM 40.0697 -115.6936 75° East 507 583 42,900 48 Level Salt Lake Center
Thu 08:31:10 PM 40.1097 -115.4956 75° East 507 583 43,000 49 Climbing Salt Lake Center
Thu 08:32:11 PM 40.1439 -115.3242 75° East 508 585 43,000 -49 Level Salt Lake Center
Thu 08:33:13 PM 40.1844 -115.1256 75° East 509 586 42,900 -48 Descending Salt Lake Center
Thu 08:34:15 PM 40.2189 -114.9556 75° East 507 583 42,900  Level Salt Lake Center
Thu 08:35:17 PM 40.2575 -114.7544 76° East 510 587 42,900 48 Level Salt Lake Center
Thu 08:36:19 PM 40.2944 -114.5658 76° East 509 586 43,000 48 Climbing Salt Lake Center
Thu 08:37:21 PM 40.3283 -114.3864 76° East 510 587 43,000  Level Salt Lake Center
Thu 08:38:23 PM 40.3642 -114.2069 75° East 510 587 43,000  Level Salt Lake Center
Thu 08:39:25 PM 40.3967 -114.0269 77° East 509 586 43,000  Level Salt Lake Center
Thu 08:40:27 PM 40.4314 -113.8458 76° East 512 589 43,000  Level Salt Lake Center
Thu 08:41:29 PM 40.4636 -113.6656 77° East 510 587 43,000  Level Salt Lake Center
Thu 08:42:31 PM 40.4983 -113.4853 76° East 512 589 43,000  Level Salt Lake Center
Thu 08:43:32 PM 40.5372 -113.2675 77° East 512 589 43,000  Level Salt Lake Center
Thu 08:44:34 PM 40.5700 -113.0864 77° East 512 589 43,000  Level Salt Lake Center
Thu 08:45:36 PM 40.6033 -112.9044 76° East 513 590 43,000  Level Salt Lake Center
Thu 08:46:38 PM 40.6361 -112.7236 77° East 511 588 43,000  Level Salt Lake Center
Thu 08:47:40 PM 40.6678 -112.5408 77° East 516 594 43,000 -48 Level Salt Lake Center
Thu 08:48:42 PM 40.6989 -112.3572 77° East 517 595 42,900  Descending Salt Lake Center
Thu 08:49:44 PM 40.7356 -112.1389 77° East 515 593 43,000 49 Climbing Salt Lake Center
Thu 08:50:45 PM 40.7686 -111.9564 76° East 523 602 43,000  Level Salt Lake Center
Thu 08:51:47 PM 40.7983 -111.7742 78° East 529 609 43,000  Level Salt Lake Center
Thu 08:52:49 PM 40.8278 -111.5944 78° East 511 588 43,000 -48 Level Salt Lake Center
Thu 08:53:51 PM 40.8633 -111.3775 78° East 511 588 42,900  Descending Salt Lake Center
Thu 08:54:52 PM 40.8922 -111.1956 78° East 508 585 43,000 49 Climbing Salt Lake Center
Thu 08:55:54 PM 40.9222 -111.0125 78° East 511 588 43,000  Level Salt Lake Center
Thu 08:56:56 PM 40.9508 -110.8292 78° East 512 589 43,000  Level Salt Lake Center
Thu 08:57:58 PM 40.9806 -110.6447 78° East 514 592 43,000  Level Salt Lake Center
Thu 08:58:59 PM 41.0119 -110.4422 78° East 513 590 43,000  Level Salt Lake Center
Thu 09:00:01 PM 41.0386 -110.2644 79° East 515 593 43,000  Level Salt Lake Center
Thu 09:01:03 PM 41.0694 -110.0581 79° East 514 592 43,000  Level Salt Lake Center
Thu 09:02:05 PM 41.0961 -109.8808 79° East 514 592 43,000  Level Salt Lake Center
Thu 09:03:07 PM 41.1267 -109.6719 79° East 517 595 43,000  Level Salt Lake Center
Thu 09:04:08 PM 41.1531 -109.4928 79° East 520 598 43,000  Level Salt Lake Center
Thu 09:05:10 PM 41.1839 -109.2842 79° East 522 601 43,000  Level Salt Lake Center
Thu 09:06:11 PM 41.2092 -109.1058 79° East 522 601 43,000  Level Salt Lake Center
Thu 09:07:13 PM 41.2389 -108.8967 79° East 524 603 43,000  Level Salt Lake Center
Thu 09:07:47 PM 41.2514 -108.8064 80° East 524 603 43,000  Level Denver Center
Thu 09:08:49 PM 41.2814 -108.5947 79° East 526 605 43,000  Level Denver Center
Thu 09:09:51 PM 41.3067 -108.4150 79° East 523 602 43,000  Level Denver Center
Thu 09:10:53 PM 41.3347 -108.2039 80° East 520 598 43,000  Level Denver Center
Thu 09:11:56 PM 41.3583 -108.0239 80° East 518 596 43,000 -48 Level Denver Center
Thu 09:12:58 PM 41.3869 -107.8131 80° East 520 598 42,900  Descending Denver Center
Thu 09:14:00 PM 41.4097 -107.6325 80° East 518 596 43,000 48 Climbing Denver Center
Thu 09:15:02 PM 41.4361 -107.4211 80° East 519 597 43,000  Level Denver Center
Thu 09:16:04 PM 41.4603 -107.2408 80° East 520 598 43,000  Level Denver Center
Thu 09:17:06 PM 41.4867 -107.0269 81° East 524 603 43,000  Level Denver Center
Thu 09:18:08 PM 41.5075 -106.8478 81° East 516 594 43,000  Level Denver Center
Thu 09:19:10 PM 41.5342 -106.6350 80° East 520 598 43,000  Level Denver Center
Thu 09:20:12 PM 41.5547 -106.4550 81° East 516 594 43,000  Level Denver Center
Thu 09:21:14 PM 41.5811 -106.2453 80° East 514 592 43,000  Level Denver Center
Thu 09:22:16 PM 41.6022 -106.0628 81° East 518 596 43,000  Level Denver Center
Thu 09:23:18 PM 41.6261 -105.8500 81° East 520 598 43,000  Level Denver Center
Thu 09:24:20 PM 41.6442 -105.6633 83° East 527 606 43,000  Level Denver Center
Thu 09:25:22 PM 41.6694 -105.4489 81° East 525 604 43,000  Level Denver Center
Thu 09:26:24 PM 41.6883 -105.2636 82° East 528 608 43,000  Level Denver Center
Thu 09:27:26 PM 41.7106 -105.0478 82° East 528 608 43,000  Level Denver Center
Thu 09:28:29 PM 41.7300 -104.8603 82° East 532 612 43,000  Level Denver Center
Thu 09:29:31 PM 41.7528 -104.6467 82° East 523 602 43,000  Level Denver Center
Thu 09:30:33 PM 41.7711 -104.4606 82° East 528 608 43,000  Level Denver Center
Thu 09:31:35 PM 41.7928 -104.2442 82° East 528 608 43,000  Level Denver Center
Thu 09:32:37 PM 41.8106 -104.0594 83° East 526 605 43,000  Level Denver Center
Thu 09:33:39 PM 41.8314 -103.8417 83° East 530 610 43,000  Level Denver Center
Thu 09:34:41 PM 41.8489 -103.6561 83° East 527 606 43,000  Level Denver Center
Thu 09:35:43 PM 41.8681 -103.4406 83° East 524 603 43,000  Level Denver Center
Thu 09:36:45 PM 41.8858 -103.2536 83° East 528 608 43,000  Level Denver Center
Thu 09:37:47 PM 41.9044 -103.0364 83° East 527 606 43,000  Level Denver Center
Thu 09:38:49 PM 41.9197 -102.8525 84° East 522 601 43,000  Level Denver Center
Thu 09:39:51 PM 41.9394 -102.6342 83° East 526 605 43,000  Level Denver Center
Thu 09:40:53 PM 41.9542 -102.4489 84° East 523 602 43,000  Level Denver Center
Thu 09:41:55 PM 41.9686 -102.2633 84° East 523 602 43,000  Level Denver Center
Thu 09:42:57 PM 41.9861 -102.0500 84° East 523 602 43,000  Level Denver Center
Thu 09:43:59 PM 42.0042 -101.8319 84° East 524 603 43,000  Level Denver Center
Thu 09:45:01 PM 42.0172 -101.6464 85° East 522 601 43,000  Level Denver Center
Thu 09:46:03 PM 42.0317 -101.4600 84° East 521 600 43,000  Level Denver Center
Thu 09:47:06 PM 42.0467 -101.2431 85° East 521 600 43,000  Level Denver Center
Thu 09:48:08 PM 42.0594 -101.0564 85° East 522 601 43,000  Level Denver Center
Thu 09:49:10 PM 42.0756 -100.8381 84° East 524 603 43,000  Level Denver Center
Thu 09:50:12 PM 42.0872 -100.6508 85° East 523 602 43,000  Level Denver Center
Thu 09:51:14 PM 42.1017 -100.4322 85° East 525 604 43,000  Level Denver Center
Thu 09:51:49 PM 42.1086 -100.3175 85° East 526 605 43,000  Level Minneapolis Center
Thu 09:52:16 PM 42.1133 -100.2425 85° East 529 609 43,000  Level Denver Center
Thu 09:52:51 PM 42.1208 -100.1200 85° East 528 608 43,000  Level Minneapolis Center
Thu 09:53:18 PM 42.1275 -100.0222 85° East 529 609 43,000  Level Denver Center
Thu 09:54:20 PM 42.1381 -99.8350 86° East 528 608 43,000  Level Denver Center
Thu 09:54:54 PM 42.1456 -99.7233 85° East 531 611 43,000  Level Minneapolis Center
Thu 09:55:34 PM 42.1517 -99.6053 86° East 530 610 43,000  Level Denver Center
Thu 09:56:36 PM 42.1631 -99.4047 86° East 531 611 43,000  Level Denver Center
Thu 09:57:39 PM 42.1761 -99.1681 86° East 527 606 43,000  Level Denver Center
Thu 09:58:41 PM 42.1853 -98.9678 86° East 532 612 43,000  Level Denver Center
Thu 09:59:01 PM 42.1886 -98.9294 83° East 531 611 43,000  Level Minneapolis Center
Thu 10:00:02 PM 42.1997 -98.6883 86° East 534 615 43,000  Level Minneapolis Center
Thu 10:01:04 PM 42.2094 -98.4900 86° East 532 612 43,000  Level Minneapolis Center
Thu 10:02:06 PM 42.2186 -98.2906 86° East 531 611 43,000  Level Minneapolis Center
Thu 10:03:09 PM 42.2272 -98.0906 87° East 533 613 43,000  Level Minneapolis Center
Thu 10:04:10 PM 42.2367 -97.8917 86° East 531 611 43,000  Level Minneapolis Center
Thu 10:05:12 PM 42.2447 -97.6764 87° East 530 610 43,000 -48 Level Minneapolis Center
Thu 10:06:14 PM 42.2531 -97.4756 87° East 533 613 42,900  Descending Minneapolis Center
Thu 10:07:16 PM 42.2603 -97.2781 87° East 530 610 43,000 49 Climbing Minneapolis Center
Thu 10:08:17 PM 42.2675 -97.0786 87° East 531 611 43,000  Level Minneapolis Center
Thu 10:09:19 PM 42.2742 -96.8797 87° East 530 610 43,000  Level Minneapolis Center
Thu 10:10:21 PM 42.2808 -96.6800 87° East 531 611 43,000  Level Minneapolis Center
Thu 10:11:23 PM 42.2861 -96.4808 88° East 531 611 43,000 -49 Level Minneapolis Center
Thu 10:12:24 PM 42.2931 -96.2392 88° East 532 612 42,900  Descending Minneapolis Center
Thu 10:13:26 PM 42.2981 -96.0375 88° East 535 616 43,000  Climbing Minneapolis Center
Thu 10:14:28 PM 42.3033 -95.8358 88° East 534 615 42,900 -48 Descending Minneapolis Center
Thu 10:15:30 PM 42.3081 -95.6339 88° East 535 616 42,900 48 Level Minneapolis Center
Thu 10:16:32 PM 42.3114 -95.4308 89° East 538 619 43,000 48 Climbing Minneapolis Center
Thu 10:17:34 PM 42.3156 -95.2306 88° East 532 612 43,000  Level Minneapolis Center
Thu 10:18:35 PM 42.3194 -95.0322 88° East 529 609 43,000  Level Minneapolis Center
Thu 10:19:37 PM 42.3233 -94.8306 88° East 533 613 43,000 -48 Level Minneapolis Center
Thu 10:20:39 PM 42.3253 -94.5872 89° East 537 618 42,900 -48 Descending Minneapolis Center
Thu 10:21:41 PM 42.3272 -94.3856 89° East 537 618 42,900  Level Minneapolis Center
Thu 10:22:43 PM 42.3294 -94.1772 89° East 535 616 42,900  Level Minneapolis Center
Thu 10:23:44 PM 42.3311 -93.9781 89° East 536 617 42,900  Level Minneapolis Center
Thu 10:24:46 PM 42.3319 -93.7783 90° East 535 616 42,900 48 Level Minneapolis Center
Thu 10:25:48 PM 42.3350 -93.5803 89° East 534 615 43,000  Climbing Minneapolis Center
Thu 10:26:50 PM 42.3347 -93.3811 90° East 536 617 42,900 -48 Descending Minneapolis Center
Thu 10:27:52 PM 42.3356 -93.1817 90° East 535 616 42,900 49 Level Minneapolis Center
Thu 10:28:53 PM 42.3356 -92.9458 90° East 532 612 43,000  Climbing Minneapolis Center
Thu 10:29:55 PM 42.3356 -92.7450 90° East 538 619 42,900 -48 Descending Minneapolis Center
Thu 10:30:57 PM 42.3339 -92.5450 91° East 539 620 42,900 48 Level Minneapolis Center
Thu 10:31:59 PM 42.3333 -92.3458 90° East 539 620 43,000 48 Climbing Minneapolis Center
Thu 10:33:01 PM 42.3319 -92.1467 90° East 538 619 43,000 -49 Level Minneapolis Center
Thu 10:34:02 PM 42.3294 -91.9067 91° East 538 619 42,900  Descending Minneapolis Center
Thu 10:35:04 PM 42.3275 -91.7067 91° East 541 623 43,000 48 Climbing Minneapolis Center
Thu 10:36:06 PM 42.3250 -91.5069 91° East 543 625 43,000  Level Minneapolis Center
Thu 10:37:08 PM 42.3211 -91.3067 91° East 543 625 43,000  Level Minneapolis Center
Thu 10:38:09 PM 42.3175 -91.0664 91° East 542 624 43,000  Level Minneapolis Center
Thu 10:39:15 PM 42.3139 -90.8686 91° East 537 618 43,000  Level Chicago Center
Thu 10:40:17 PM 42.3092 -90.6653 92° East 544 626 43,000  Level Chicago Center
Thu 10:41:18 PM 42.3056 -90.4611 91° East 550 633 43,000  Level Chicago Center
Thu 10:42:20 PM 42.2997 -90.2172 92° East 549 632 43,000  Level Chicago Center
Thu 10:43:21 PM 42.2947 -90.0144 92° East 546 628 43,000  Level Chicago Center
Thu 10:44:22 PM 42.2892 -89.8186 92° East 548 631 43,000  Level Chicago Center
Thu 10:45:24 PM 42.2831 -89.6139 92° East 546 628 43,000  Level Chicago Center
Thu 10:46:25 PM 42.2756 -89.3742 92° East 548 631 43,000  Level Chicago Center
Thu 10:47:26 PM 42.2697 -89.1689 92° East 548 631 43,000  Level Chicago Center
Thu 10:48:28 PM 42.2619 -88.9594 93° East 558 642 43,000  Level Chicago Center
Thu 10:49:29 PM 42.2531 -88.7375 93° East 561 646 43,000  Level Chicago Center
Thu 10:50:30 PM 42.2461 -88.5292 93° East 559 643 43,000  Level Chicago Center
Thu 10:51:31 PM 42.2369 -88.3194 93° East 561 646 43,000  Level Chicago Center
Thu 10:52:32 PM 42.2278 -88.1108 93° East 559 643 43,000  Level Chicago Center
Thu 10:53:34 PM 42.2183 -87.9022 93° East 557 641 43,000  Level Chicago Center
Thu 10:54:35 PM 42.2078 -87.6939 94° East 557 641 43,000  Level Chicago Center
Thu 10:55:36 PM 42.1953 -87.4833 95° East 561 646 43,000  Level Chicago Center
Thu 10:56:37 PM 42.1844 -87.2744 94° East 560 644 43,000  Level Chicago Center
Thu 10:57:38 PM 42.1719 -87.0653 95° East 560 644 43,000  Level Chicago Center
Thu 10:58:40 PM 42.1556 -86.8128 95° East 564 649 43,000  Level Chicago Center
Thu 10:59:41 PM 42.1458 -86.6342 94° East 561 646 43,000  Level Chicago Center
Thu 11:00:42 PM 42.1322 -86.4219 95° East 568 654 43,000  Level Chicago Center
Thu 11:01:43 PM 42.1183 -86.2125 95° East 564 649 43,000  Level Chicago Center
Thu 11:02:45 PM 42.1011 -85.9575 95° East 568 654 43,000  Level Chicago Center
Thu 11:03:46 PM 42.0872 -85.7647 95° East 567 652 43,000  Level Chicago Center
Thu 11:04:47 PM 42.0731 -85.5531 95° East 570 656 43,000  Level Chicago Center
Thu 11:05:48 PM 42.0575 -85.3414 96° East 572 658 43,000  Level Chicago Center
Thu 11:06:50 PM 42.0422 -85.1294 95° East 573 659 43,000  Level Chicago Center
Thu 11:07:51 PM 42.0383 -84.8711 91° East 582 670 43,000  Level Chicago Center
Thu 11:08:52 PM 42.0419 -84.6536 89° East 584 672 43,000  Level Chicago Center
Thu 11:09:53 PM 42.0442 -84.4353 89° East 586 674 43,000  Level Chicago Center
Thu 11:10:54 PM 42.0450 -84.2153 90° East 589 678 43,000  Level Chicago Center
Thu 11:11:09 PM 42.0442 -84.1511 91° East 581 669 43,000  Level Cleveland Center
Thu 11:12:09 PM 42.0444 -83.9331 90° East 581 669 43,000  Level Cleveland Center
Thu 11:13:09 PM 42.0444 -83.7094 90° East 586 674 43,000  Level Cleveland Center
Thu 11:14:09 PM 42.0456 -83.5108 90° East 591 680 43,000  Level Cleveland Center
Thu 11:15:09 PM 42.0531 -83.2931 87° East 591 680 43,000  Level Cleveland Center
Thu 11:16:09 PM 42.0644 -83.0614 86° East 591 680 43,000  Level Cleveland Center
Thu 11:17:09 PM 42.0753 -82.8406 86° East 598 688 43,000  Level Cleveland Center
Thu 11:18:09 PM 42.0858 -82.6200 86° East 593 682 43,000  Level Cleveland Center
Thu 11:19:09 PM 42.0936 -82.3936 87° East 593 682 43,000  Level Cleveland Center
Thu 11:20:09 PM 42.1053 -82.1700 86° East 593 682 43,000  Level Cleveland Center
Thu 11:21:09 PM 42.1167 -81.9267 86° East 588 677 43,000  Level Cleveland Center
Thu 11:22:09 PM 42.1233 -81.7114 88° East 588 677 43,000  Level Cleveland Center
Thu 11:23:09 PM 42.1314 -81.4931 87° East 588 677 43,000  Level Cleveland Center
Thu 11:24:09 PM 42.1369 -81.3000 88° East 582 670 43,000  Level Cleveland Center
Thu 11:25:09 PM 42.1464 -81.0817 87° East 582 670 43,000  Level Cleveland Center
Thu 11:26:09 PM 42.1639 -80.8633 84° East 582 670 43,000  Level Cleveland Center
Thu 11:27:09 PM 42.1789 -80.6392 85° East 598 688 43,000  Level Cleveland Center
Thu 11:28:09 PM 42.1975 -80.4178 83° East 598 688 43,000  Level Cleveland Center
Thu 11:29:09 PM 42.2156 -80.1794 84° East 588 677 43,000  Level Cleveland Center
Thu 11:30:09 PM 42.2292 -79.9578 85° East 595 685 43,000  Level Cleveland Center
Thu 11:31:09 PM 42.2467 -79.7333 84° East 595 685 43,000  Level Cleveland Center
Thu 11:32:09 PM 42.2614 -79.5142 85° East 595 685 43,000  Level Cleveland Center
Thu 11:33:09 PM 42.2758 -79.2922 85° East 595 685 43,000 -250 Level Cleveland Center
Thu 11:34:09 PM 42.2897 -79.0731 85° East 595 685 42,500 -700 Descending Cleveland Center
Thu 11:35:09 PM 42.3036 -78.8594 85° East 589 678 41,600 -750 Descending Cleveland Center
Thu 11:36:09 PM 42.3167 -78.6400 85° East 589 678 41,000 -300 Descending Cleveland Center
Thu 11:37:09 PM 42.3294 -78.4150 86° East 589 678 41,000  Level Cleveland Center
Thu 11:38:09 PM 42.3417 -78.1925 86° East 595 685 41,000  Level Cleveland Center
Thu 11:39:09 PM 42.3533 -77.9644 86° East 601 692 41,000  Level Cleveland Center
Thu 11:40:09 PM 42.3647 -77.7419 86° East 601 692 41,000  Level Cleveland Center
Thu 11:41:09 PM 42.3742 -77.5336 86° East 601 692 41,000  Level Cleveland Center
Thu 11:42:59 PM 42.3956 -77.1219 86° East 620 713 41,000  Level Boston Center
Thu 11:43:59 PM 42.4044 -76.8975 87° East 603 694 41,000 -500 Level Boston Center
Thu 11:44:59 PM 42.4153 -76.6758 86° East 597 687 40,000 -1,450 Descending Boston Center
Thu 11:45:59 PM 42.4253 -76.4542 86° East 587 676 38,100 -2,000 Descending Boston Center
Thu 11:46:59 PM 42.4339 -76.2072 87° East 594 684 36,000 -2,000 Descending Boston Center
Thu 11:47:59 PM 42.4403 -76.0022 88° East 589 678 34,100 -1,900 Descending Boston Center
Thu 11:48:59 PM 42.4492 -75.7831 87° East 582 670 32,200 -1,800 Descending Boston Center
Thu 11:49:59 PM 42.4550 -75.5808 88° East 560 644 30,500 -1,700 Descending Boston Center
Thu 11:50:59 PM 42.4625 -75.3783 87° East 547 629 28,800 -1,750 Descending Boston Center
Thu 11:51:59 PM 42.4678 -75.1675 88° East 547 629 27,000 -1,800 Descending Boston Center
Thu 11:52:59 PM 42.4722 -74.9678 88° East 542 624 25,200 -1,850 Descending Boston Center
Thu 11:53:59 PM 42.4742 -74.7794 89° East 521 600 23,300 -1,700 Descending Boston Center
Thu 11:54:59 PM 42.4778 -74.6019 88° East 495 570 21,800 -1,450 Descending Boston Center
Thu 11:55:59 PM 42.4836 -74.4025 88° East 477 549 20,400 -1,300 Descending Boston Center
Thu 11:56:59 PM 42.4656 -74.2300 98° East 471 542 19,200 -1,300 Descending Boston Center
Thu 11:57:59 PM 42.4347 -74.0547 103° East 465 535 17,800 -1,300 Descending Boston Center
Thu 11:58:59 PM 42.4097 -73.9022 102° East 465 535 16,600 -1,176 Descending Boston Center
Thu 11:59:41 PM 42.3883 -73.7725 103° East 467 537 15,800 -1,300 Descending Boston Center
Thu 11:59:59 PM 42.3786 -73.7244 105° East 460 529 15,300 -1,256 Descending Boston Center
Fri 12:00:24 AM 42.3689 -73.6597 101° East 454 522 14,900 -1,100 Descending Boston Center
Fri 12:00:59 AM 42.3550 -73.5808 103° East 440 506 14,200 -1,300 Descending Boston Center
Fri 12:01:24 AM 42.3350 -73.4961 108° East 421 484 13,600 -1,500 Descending Boston Center
Fri 12:01:59 AM 42.3064 -73.4283 120° Southeast 398 458 12,700 -1,672 Descending Boston Center
Fri 12:02:25 AM 42.2631 -73.3856 144° Southeast 396 456 11,900 -1,700 Descending Boston Center
Fri 12:02:59 AM 42.2258 -73.3400 138° Southeast 380 437 11,000 -1,082 Descending Boston Center
Fri 12:03:26 AM 42.1908 -73.3058 144° Southeast 341 392 10,800 -700 Descending Boston Center
Fri 12:03:59 AM 42.1661 -73.2719 135° Southeast 335 386 10,300 -1,600 Descending Boston Center
Fri 12:04:26 AM 42.1267 -73.2350 145° Southeast 299 344 9,200 -2,100 Descending Boston Center
Fri 12:04:59 AM 42.0956 -73.1956 137° Southeast 308 354 8,200 -1,770 Descending Boston Center
Fri 12:05:27 AM 42.0667 -73.1672 144° Southeast 289 333 7,400 -1,600 Descending Boston Center
Fri 12:05:59 AM 42.0439 -73.1361 135° Southeast 287 330 6,600 -1,700 Descending Boston Center
Fri 12:06:27 AM 42.0086 -73.1022 144° Southeast 272 313 5,700 -1,800 Descending Boston Center
Fri 12:06:59 AM 41.9819 -73.0683 137° Southeast 270 311 4,800 -1,574 Descending Boston Center
Fri 12:07:28 AM 41.9550 -73.0431 145° Southeast 257 296 4,100 -800 Descending Boston Center
Fri 12:07:59 AM 41.9342 -73.0150 135° Southeast 256 295 4,000 -393 Descending Boston Center
Fri 12:08:29 AM 41.9011 -72.9839 145° Southeast 229 264 3,700 -700 Descending Boston Center
Fri 12:08:59 AM 41.8886 -72.9644 131° Southeast 230 265 3,300 -700 Descending Boston Center
Fri 12:09:29 AM 41.8594 -72.9364 144° Southeast 204 235 3,000 -400 Descending Boston Center
Fri 12:09:59 AM 41.8450 -72.9167 135° Southeast 217 250 2,900 -393 Descending Boston Center
Fri 12:10:30 AM 41.8286 -72.8719 116° Southeast 217 250 2,600 -400 Descending Boston Center
Fri 12:10:59 AM 41.8328 -72.8386 80° East 197 227 2,500 -222 Descending Boston Center
Fri 12:11:24 AM 41.8517 -72.8081 50° Northeast 214 246 2,400 -500 Descending Boston Center
Fri 12:11:59 AM 41.8683 -72.7831 48° Northeast 172 198 2,000 -787 Descending Boston Center
Fri 12:12:25 AM 41.8811 -72.7664 44° Northeast 149 171 1,600 -800 Descending Boston Center
Fri 12:12:59 AM 41.8936 -72.7497 45° Northeast 144 166 1,200 -689 Descending Boston Center
Fri 12:13:26 AM 41.9081 -72.7331 41° Northeast 131 151 900 -600 Descending Boston Center
Fri 12:13:59 AM 41.9186 -72.7164 50° Northeast 132 152 600 -545 Descending Boston Center
Fri 12:15:00 AM 41.9333 -72.6833 60° Northeast  Level FlightAware Approximate
Fri 12:22:00 AM 41.9392 -72.6834 60° Northeast  Level Estimated
Fri 12:23:00 AM 41.9333 -72.6833 60° Northeast  Level FlightAware Approximate
Fri 12:24:00 AM 41.9392 -72.6834 60° Northeast  Level Estimated
Fri 12:25:00 AM 41.9333 -72.6833 60° Northeast  Level FlightAware Approximate

Login

Don't have an account? Register now (free) for customized features, flight alerts, and more!